Time;durP1;ratioP1;P1;durP2;ratioP2;P2;SDS_P1;SDS_P2;PMS_P1;PMS_P2;Temp;Humidity;BMP_temperature;BMP_pressure;BME280_temperature;BME280_humidity;BME280_pressure;Samples;Min_cycle;Max_cycle;Signal;HPM_P1;HPM_P2
2022/08/22 00:01:56;;;;;;;15.70;5.78;;;;;;;;;;5041900;28;20040;-84
2022/08/22 00:04:31;;;;;;;16.80;5.45;;;;;;;;;;5036996;28;20021;-84
2022/08/22 00:07:05;;;;;;;17.25;6.03;;;;;;;;;;5050027;28;20064;-83
2022/08/22 00:09:39;;;;;;;15.82;5.55;;;;;;;;;;5038843;28;20033;-85
2022/08/22 00:12:28;;;;;;;16.75;5.13;;;;;;;;;;5040701;28;20501;-85
2022/08/22 00:14:53;;;;;;;20.65;5.80;;;;;;;;;;5034256;28;20041;-85
2022/08/22 00:17:30;;;;;;;15.02;5.85;;;;;;;;;;5047653;28;20091;-85
2022/08/22 00:20:16;;;;;;;13.02;5.40;;;;;;;;;;5043410;28;20026;-84
2022/08/22 00:22:50;;;;;;;17.70;5.85;;;;;;;;;;5030883;28;20060;-82
2022/08/22 00:25:15;;;;;;;;;;;;;;;;;;5040297;28;20036;-84
2022/08/22 00:27:47;;;;;;;17.25;5.05;;;;;;;;;;5031104;28;19909;-84
2022/08/22 00:30:14;;;;;;;13.63;5.57;;;;;;;;;;5046342;28;20029;-84
2022/08/22 00:32:43;;;;;;;13.65;5.70;;;;;;;;;;5040942;28;20045;-79
2022/08/22 00:35:28;;;;;;;14.57;5.50;;;;;;;;;;5047236;28;20039;-80
2022/08/22 00:38:13;;;;;;;17.27;5.05;;;;;;;;;;5036765;28;20060;-82
2022/08/22 00:40:41;;;;;;;12.50;5.22;;;;;;;;;;5034501;28;20032;-81
2022/08/22 00:43:21;;;;;;;19.50;5.57;;;;;;;;;;5041034;28;20040;-81
2022/08/22 00:45:57;;;;;;;21.15;5.35;;;;;;;;;;5037644;28;20064;-84
2022/08/22 00:48:28;;;;;;;13.65;4.47;;;;;;;;;;5039171;28;20060;-84
2022/08/22 00:51:11;;;;;;;13.75;5.38;;;;;;;;;;5042527;28;20041;-85
2022/08/22 00:53:56;;;;;;;16.15;5.50;;;;;;;;;;5036830;28;20381;-84
2022/08/22 00:56:21;;;;;;;;;;;;;;;;;;5034690;28;20025;-81
2022/08/22 00:59:05;;;;;;;10.43;4.55;;;;;;;;;;5035793;28;19916;-80
2022/08/22 01:01:33;;;;;;;11.30;4.75;;;;;;;;;;5039749;28;20262;-80
2022/08/22 01:04:08;;;;;;;9.43;4.90;;;;;;;;;;5035611;28;20033;-82
2022/08/22 01:06:36;;;;;;;19.83;5.15;;;;;;;;;;5034068;28;20042;-82
2022/08/22 01:09:04;;;;;;;15.48;5.63;;;;;;;;;;5040095;28;20483;-81
2022/08/22 01:11:29;;;;;;;12.32;5.32;;;;;;;;;;5043164;28;20030;-81
2022/08/22 01:14:13;;;;;;;16.55;5.30;;;;;;;;;;5043710;28;20479;-82
2022/08/22 01:16:41;;;;;;;11.68;4.93;;;;;;;;;;5040095;28;20033;-83
2022/08/22 01:19:29;;;;;;;16.23;5.40;;;;;;;;;;5044292;28;20492;-85
2022/08/22 01:22:01;;;;;;;12.95;5.70;;;;;;;;;;5022156;28;20038;-84
2022/08/22 01:25:16;;;;;;;20.60;5.30;;;;;;;;;;5033720;28;20053;-83
2022/08/22 01:27:27;;;;;;;15.13;4.93;;;;;;;;;;5039610;28;20033;-84
2022/08/22 01:30:04;;;;;;;13.82;5.47;;;;;;;;;;5036270;28;20086;-84
2022/08/22 01:32:32;;;;;;;15.82;5.45;;;;;;;;;;5041450;28;20042;-81
2022/08/22 01:35:16;;;;;;;12.00;4.95;;;;;;;;;;5048428;28;20362;-82
2022/08/22 01:37:59;;;;;;;19.40;5.50;;;;;;;;;;5040515;28;20035;-81
2022/08/22 01:40:34;;;;;;;13.90;4.82;;;;;;;;;;5041347;28;20120;-81
2022/08/22 01:43:15;;;;;;;15.60;5.13;;;;;;;;;;5038383;28;20037;-81
2022/08/22 01:45:59;;;;;;;13.07;5.22;;;;;;;;;;5052987;28;20044;-81
2022/08/22 01:48:24;;;;;;;;;;;;;;;;;;5043896;28;20469;-81
2022/08/22 01:50:55;;;;;;;11.73;4.32;;;;;;;;;;5043918;28;20391;-81
2022/08/22 01:53:28;;;;;;;15.30;5.32;;;;;;;;;;5042553;28;20282;-80
2022/08/22 01:56:05;;;;;;;18.83;5.25;;;;;;;;;;5046771;28;20033;-82
2022/08/22 01:58:32;;;;;;;17.92;5.50;;;;;;;;;;5040259;28;20037;-82
2022/08/22 02:01:15;;;;;;;19.92;5.32;;;;;;;;;;5045136;28;20095;-82
2022/08/22 02:03:50;;;;;;;14.38;5.30;;;;;;;;;;5041885;28;20033;-84
2022/08/22 02:06:18;;;;;;;14.07;5.13;;;;;;;;;;5052935;28;20032;-80
2022/08/22 02:09:03;;;;;;;18.75;5.03;;;;;;;;;;5052767;28;20480;-81
2022/08/22 02:11:36;;;;;;;13.80;4.75;;;;;;;;;;5040904;28;20045;-83
2022/08/22 02:14:19;;;;;;;10.00;5.10;;;;;;;;;;5037931;28;20469;-84
2022/08/22 02:16:48;;;;;;;9.63;4.38;;;;;;;;;;5048083;28;20079;-82
2022/08/22 02:19:13;;;;;;;14.60;5.13;;;;;;;;;;5047868;28;20083;-83
2022/08/22 02:21:41;;;;;;;11.82;5.07;;;;;;;;;;5044549;28;20025;-78
2022/08/22 02:24:15;;;;;;;11.90;5.03;;;;;;;;;;5052510;28;20053;-80
2022/08/22 02:26:41;;;;;;;13.68;5.18;;;;;;;;;;5053624;28;20032;-79
2022/08/22 02:29:09;;;;;;;11.43;4.97;;;;;;;;;;5037235;28;20041;-84
2022/08/22 02:31:53;;;;;;;10.70;5.25;;;;;;;;;;5048270;28;20036;-80
2022/08/22 02:34:21;;;;;;;15.65;4.53;;;;;;;;;;5041225;28;20029;-79
2022/08/22 02:36:50;;;;;;;13.20;4.88;;;;;;;;;;5041922;28;20068;-78
2022/08/22 02:39:51;;;;;;;9.13;4.38;;;;;;;;;;5043534;28;20540;-78
2022/08/22 02:42:25;;;;;;;17.20;4.57;;;;;;;;;;5028610;28;20065;-79
2022/08/22 02:44:54;;;;;;;8.75;4.72;;;;;;;;;;5035681;28;20416;-82
2022/08/22 02:47:22;;;;;;;13.95;4.80;;;;;;;;;;5044875;28;20437;-84
2022/08/22 02:49:50;;;;;;;11.75;4.63;;;;;;;;;;5041267;28;20029;-83
2022/08/22 02:52:38;;;;;;;15.98;5.25;;;;;;;;;;5038696;28;20041;-81
2022/08/22 02:55:17;;;;;;;11.77;5.30;;;;;;;;;;5026282;28;20037;-83
2022/08/22 02:57:51;;;;;;;11.07;4.70;;;;;;;;;;5040781;28;20370;-83
2022/08/22 03:00:25;;;;;;;11.80;4.65;;;;;;;;;;5046453;28;20026;-80
2022/08/22 03:03:01;;;;;;;18.67;5.18;;;;;;;;;;5032629;28;20038;-81
2022/08/22 03:05:35;;;;;;;15.98;5.15;;;;;;;;;;5038174;28;20230;-82
2022/08/22 03:08:07;;;;;;;14.02;4.78;;;;;;;;;;5039051;28;20037;-84
2022/08/22 03:10:39;;;;;;;17.08;4.85;;;;;;;;;;5050189;28;20017;-82
2022/08/22 03:13:15;;;;;;;11.77;4.38;;;;;;;;;;5032500;28;20041;-78
2022/08/22 03:16:07;;;;;;;9.65;4.80;;;;;;;;;;5040937;28;20028;-77
2022/08/22 03:18:41;;;;;;;11.48;5.13;;;;;;;;;;5051169;28;20029;-77
2022/08/22 03:21:25;;;;;;;9.05;4.53;;;;;;;;;;5036512;28;20029;-83
2022/08/22 03:24:03;;;;;;;14.07;4.45;;;;;;;;;;5042808;28;20042;-83
2022/08/22 03:26:28;;;;;;;16.00;4.88;;;;;;;;;;5038849;28;20472;-84
2022/08/22 03:28:59;;;;;;;12.88;4.93;;;;;;;;;;5052106;28;20036;-84
2022/08/22 03:31:25;;;;;;;13.57;5.47;;;;;;;;;;5043589;28;20849;-83
2022/08/22 03:34:08;;;;;;;11.52;4.57;;;;;;;;;;5043022;28;20128;-83
2022/08/22 03:36:34;;;;;;;10.02;4.38;;;;;;;;;;5025915;28;20112;-83
2022/08/22 03:39:02;;;;;;;10.68;4.78;;;;;;;;;;5037889;28;20101;-83
2022/08/22 03:41:56;;;;;;;12.02;4.72;;;;;;;;;;5052400;28;20031;-82
2022/08/22 03:44:34;;;;;;;10.48;4.53;;;;;;;;;;5035906;28;20087;-82
2022/08/22 03:47:18;;;;;;;12.20;4.78;;;;;;;;;;5041085;28;20037;-82
2022/08/22 03:49:43;;;;;;;;;;;;;;;;;;5034884;28;20037;-83
2022/08/22 03:52:17;;;;;;;9.45;4.15;;;;;;;;;;5037025;28;20406;-83
2022/08/22 03:54:45;;;;;;;11.88;4.43;;;;;;;;;;5043154;28;20041;-78
2022/08/22 03:57:23;;;;;;;13.10;4.82;;;;;;;;;;5045945;28;20028;-83
2022/08/22 04:00:08;;;;;;;11.77;4.90;;;;;;;;;;5047702;28;20025;-82
2022/08/22 04:02:39;;;;;;;15.95;5.50;;;;;;;;;;5035078;28;20495;-83
2022/08/22 04:05:07;;;;;;;19.65;5.05;;;;;;;;;;5037901;28;20095;-83
2022/08/22 04:07:51;;;;;;;14.35;4.95;;;;;;;;;;5038462;28;20427;-80
2022/08/22 04:10:52;;;;;;;12.90;5.28;;;;;;;;;;5035805;28;20037;-81
2022/08/22 04:13:32;;;;;;;9.60;4.32;;;;;;;;;;5039978;28;20048;-80
2022/08/22 04:16:03;;;;;;;13.68;4.65;;;;;;;;;;5041751;28;20507;-81
2022/08/22 04:18:41;;;;;;;13.65;5.13;;;;;;;;;;5037802;28;20024;-82
2022/08/22 04:21:09;;;;;;;11.77;5.47;;;;;;;;;;5046728;28;20028;-80
2022/08/22 04:23:35;;;;;;;12.23;5.47;;;;;;;;;;5044075;28;20045;-82
2022/08/22 04:26:02;;;;;;;11.98;5.18;;;;;;;;;;5051292;28;20032;-82
2022/08/22 04:28:30;;;;;;;12.68;5.38;;;;;;;;;;5038721;28;20388;-81
2022/08/22 04:31:01;;;;;;;12.93;5.32;;;;;;;;;;5044237;28;20053;-82
2022/08/22 04:33:45;;;;;;;12.13;5.35;;;;;;;;;;5038963;28;20045;-81
2022/08/22 04:36:16;;;;;;;11.10;5.38;;;;;;;;;;5049003;28;20033;-82
2022/08/22 04:38:47;;;;;;;15.32;5.82;;;;;;;;;;5036155;28;20079;-82
2022/08/22 04:41:15;;;;;;;12.88;5.60;;;;;;;;;;5039257;28;20025;-82
2022/08/22 04:43:45;;;;;;;16.02;5.38;;;;;;;;;;5037969;28;20079;-83
2022/08/22 04:46:31;;;;;;;13.32;4.90;;;;;;;;;;5035899;28;20021;-83
2022/08/22 04:49:12;;;;;;;15.57;5.50;;;;;;;;;;5044085;28;20433;-82
2022/08/22 04:51:39;;;;;;;10.00;4.70;;;;;;;;;;5037924;28;20120;-82
2022/08/22 04:54:30;;;;;;;13.65;5.38;;;;;;;;;;5035055;28;20033;-83
2022/08/22 04:56:56;;;;;;;15.48;5.40;;;;;;;;;;5040207;28;20037;-82
2022/08/22 04:59:23;;;;;;;10.70;4.88;;;;;;;;;;5049183;28;20025;-82
2022/08/22 05:01:51;;;;;;;17.40;5.45;;;;;;;;;;5039889;28;20370;-82
2022/08/22 05:04:22;;;;;;;14.27;4.95;;;;;;;;;;5047418;28;20112;-82
2022/08/22 05:06:52;;;;;;;15.07;5.10;;;;;;;;;;5048602;28;20454;-79
2022/08/22 05:09:23;;;;;;;11.43;5.13;;;;;;;;;;5047210;28;20086;-82
2022/08/22 05:11:51;;;;;;;16.58;5.20;;;;;;;;;;5047077;28;20094;-82
2022/08/22 05:14:36;;;;;;;8.93;4.70;;;;;;;;;;5033913;28;20036;-83
2022/08/22 05:17:03;;;;;;;10.65;4.53;;;;;;;;;;5027785;28;20045;-82
2022/08/22 05:19:33;;;;;;;10.82;4.20;;;;;;;;;;5044567;28;20036;-82
2022/08/22 05:22:00;;;;;;;13.90;4.35;;;;;;;;;;5039711;28;20100;-82
2022/08/22 05:24:34;;;;;;;11.70;4.45;;;;;;;;;;5033287;28;20045;-82
2022/08/22 05:27:03;;;;;;;13.48;4.10;;;;;;;;;;5040971;28;20032;-82
2022/08/22 05:29:30;;;;;;;14.10;4.45;;;;;;;;;;5034283;28;20026;-81
2022/08/22 05:32:01;;;;;;;8.18;4.30;;;;;;;;;;5046250;28;20055;-82
2022/08/22 05:34:27;;;;;;;9.30;4.47;;;;;;;;;;5042864;28;20029;-82
2022/08/22 05:36:55;;;;;;;10.18;4.18;;;;;;;;;;5041604;28;20068;-83
2022/08/22 05:39:22;;;;;;;7.13;4.20;;;;;;;;;;5046173;28;20030;-83
2022/08/22 05:41:49;;;;;;;12.50;5.28;;;;;;;;;;5035278;28;20026;-82
2022/08/22 05:44:34;;;;;;;8.68;4.32;;;;;;;;;;5037979;28;20020;-83
2022/08/22 05:47:01;;;;;;;10.45;4.10;;;;;;;;;;5041793;28;20048;-82
2022/08/22 05:49:33;;;;;;;12.40;4.72;;;;;;;;;;5034346;28;20029;-81
2022/08/22 05:52:07;;;;;;;13.07;4.65;;;;;;;;;;5042280;28;20037;-82
2022/08/22 05:54:35;;;;;;;12.45;4.53;;;;;;;;;;5041976;28;20033;-81
2022/08/22 05:57:08;;;;;;;13.93;5.30;;;;;;;;;;5043171;28;20037;-83
2022/08/22 05:59:34;;;;;;;12.90;4.43;;;;;;;;;;5026794;28;20033;-83
2022/08/22 06:01:59;;;;;;;11.52;3.92;;;;;;;;;;5033917;28;20033;-81
2022/08/22 06:04:36;;;;;;;15.38;4.65;;;;;;;;;;5039977;28;20032;-83
2022/08/22 06:07:08;;;;;;;14.20;3.92;;;;;;;;;;5035920;28;20033;-83
2022/08/22 06:09:39;;;;;;;10.27;4.15;;;;;;;;;;5033907;28;20052;-83
2022/08/22 06:12:10;;;;;;;14.43;3.67;;;;;;;;;;5043541;28;20055;-83
2022/08/22 06:15:07;;;;;;;6.47;3.70;;;;;;;;;;5035834;28;20025;-83
2022/08/22 06:17:38;;;;;;;8.43;3.33;;;;;;;;;;5019264;28;20128;-83
2022/08/22 06:20:06;;;;;;;15.88;3.70;;;;;;;;;;5049550;28;20044;-83
2022/08/22 06:22:34;;;;;;;8.13;3.55;;;;;;;;;;5052055;28;20045;-83
2022/08/22 06:25:05;;;;;;;11.07;3.72;;;;;;;;;;5055572;28;20112;-83
2022/08/22 06:27:31;;;;;;;11.80;3.38;;;;;;;;;;5040366;28;20119;-83
2022/08/22 06:29:58;;;;;;;9.70;3.35;;;;;;;;;;5039837;28;20461;-84
2022/08/22 06:32:29;;;;;;;12.27;3.47;;;;;;;;;;5045920;28;20530;-83
2022/08/22 06:34:58;;;;;;;8.90;2.72;;;;;;;;;;5042856;28;20029;-84
2022/08/22 06:37:35;;;;;;;7.32;2.75;;;;;;;;;;5041027;28;20041;-82
2022/08/22 06:40:03;;;;;;;7.75;2.90;;;;;;;;;;5041924;28;20025;-84
2022/08/22 06:42:31;;;;;;;10.95;3.08;;;;;;;;;;5048454;28;20049;-83
2022/08/22 06:45:15;;;;;;;10.45;3.70;;;;;;;;;;5037628;28;20033;-83
2022/08/22 06:47:41;;;;;;;;;;;;;;;;;;5037502;28;20108;-84
2022/08/22 06:50:26;;;;;;;11.85;3.70;;;;;;;;;;5041221;28;20153;-84
2022/08/22 06:53:00;;;;;;;9.60;3.40;;;;;;;;;;5048531;28;20037;-83
2022/08/22 06:55:27;;;;;;;13.93;3.15;;;;;;;;;;5035821;28;20025;-84
2022/08/22 06:57:54;;;;;;;14.38;2.80;;;;;;;;;;5036784;28;20061;-84
2022/08/22 07:00:20;;;;;;;7.13;3.25;;;;;;;;;;5045671;28;20043;-83
2022/08/22 07:02:47;;;;;;;8.35;3.05;;;;;;;;;;5048411;28;20020;-84
2022/08/22 07:05:18;;;;;;;11.32;3.50;;;;;;;;;;5049698;28;20037;-84
2022/08/22 07:07:43;;;;;;;10.52;3.40;;;;;;;;;;5039254;28;20422;-84
2022/08/22 07:10:12;;;;;;;13.45;3.75;;;;;;;;;;5042549;28;20013;-83
2022/08/22 07:12:42;;;;;;;7.15;3.90;;;;;;;;;;5054211;28;20116;-81
2022/08/22 07:15:09;;;;;;;9.23;3.83;;;;;;;;;;5050190;28;20025;-82
2022/08/22 07:17:34;;;;;;;15.80;6.95;;;;;;;;;;5049435;28;20047;-83
2022/08/22 07:20:20;;;;;;;21.70;6.15;;;;;;;;;;5048163;28;20492;-83
2022/08/22 07:23:00;;;;;;;36.33;12.43;;;;;;;;;;5044127;28;20057;-82
2022/08/22 07:25:26;;;;;;;27.35;11.23;;;;;;;;;;5051399;28;20104;-84
2022/08/22 07:27:58;;;;;;;24.63;7.78;;;;;;;;;;5054334;28;20049;-83
2022/08/22 07:30:25;;;;;;;16.48;5.03;;;;;;;;;;5042109;28;20057;-84
2022/08/22 07:32:57;;;;;;;15.32;5.10;;;;;;;;;;5030672;28;20053;-83
2022/08/22 07:35:26;;;;;;;16.65;3.60;;;;;;;;;;5041409;28;20076;-81
2022/08/22 07:37:51;;;;;;;12.18;3.50;;;;;;;;;;5041783;28;20036;-83
2022/08/22 07:40:36;;;;;;;9.27;3.00;;;;;;;;;;5043937;28;20407;-82
2022/08/22 07:43:07;;;;;;;11.70;3.15;;;;;;;;;;5031290;28;20117;-82
2022/08/22 07:45:48;;;;;;;14.85;6.10;;;;;;;;;;5041270;28;20034;-82
2022/08/22 07:48:16;;;;;;;13.85;8.00;;;;;;;;;;5045010;28;20032;-82
2022/08/22 07:50:48;;;;;;;17.42;8.32;;;;;;;;;;5040018;28;20029;-83
2022/08/22 07:53:36;;;;;;;21.98;9.15;;;;;;;;;;5036500;28;20048;-82
2022/08/22 07:56:03;;;;;;;17.55;8.43;;;;;;;;;;5034608;28;20045;-83
2022/08/22 07:58:30;;;;;;;14.93;7.93;;;;;;;;;;5041057;28;20029;-83
2022/08/22 08:00:55;;;;;;;14.85;7.10;;;;;;;;;;5048138;28;20033;-83
2022/08/22 08:03:22;;;;;;;17.45;6.78;;;;;;;;;;5039629;28;20460;-83
2022/08/22 08:05:47;;;;;;;13.07;6.80;;;;;;;;;;5042590;28;20100;-84
2022/08/22 08:08:19;;;;;;;9.35;3.97;;;;;;;;;;5047218;28;20544;-83
2022/08/22 08:10:46;;;;;;;9.88;3.88;;;;;;;;;;5041162;28;20016;-81
2022/08/22 08:13:13;;;;;;;11.73;3.70;;;;;;;;;;5038934;28;20038;-81
2022/08/22 08:15:39;;;;;;;11.95;3.30;;;;;;;;;;5023072;28;20529;-82
2022/08/22 08:18:09;;;;;;;10.52;3.40;;;;;;;;;;5026397;28;20029;-82
2022/08/22 08:20:35;;;;;;;8.25;3.17;;;;;;;;;;5031343;28;20473;-83
2022/08/22 08:23:00;;;;;;;8.93;3.28;;;;;;;;;;5042062;28;20055;-83
2022/08/22 08:25:27;;;;;;;8.93;3.10;;;;;;;;;;5031135;28;20021;-83
2022/08/22 08:30:51;;;;;;;11.32;2.83;;;;;;;;;;5037522;28;20500;-83
2022/08/22 08:33:18;;;;;;;9.52;2.83;;;;;;;;;;5033360;28;20046;-84
2022/08/22 08:35:46;;;;;;;8.13;2.90;;;;;;;;;;5039383;28;20041;-83
2022/08/22 08:38:31;;;;;;;8.52;3.05;;;;;;;;;;5045372;28;20036;-80
2022/08/22 08:41:15;;;;;;;7.63;3.30;;;;;;;;;;5048327;28;20041;-83
2022/08/22 08:43:46;;;;;;;11.05;3.33;;;;;;;;;;5036599;28;20898;-86
2022/08/22 08:46:31;;;;;;;9.50;3.50;;;;;;;;;;5029834;28;20958;-83
2022/08/22 08:49:08;;;;;;;13.02;3.72;;;;;;;;;;5028109;28;20133;-85
2022/08/22 08:51:33;;;;;;;7.70;3.15;;;;;;;;;;5045609;28;20036;-82
2022/08/22 08:54:02;;;;;;;8.75;3.47;;;;;;;;;;5038884;28;20487;-78
2022/08/22 08:56:30;;;;;;;8.90;3.00;;;;;;;;;;5047195;28;20109;-78
2022/08/22 08:59:01;;;;;;;7.15;3.03;;;;;;;;;;5041854;28;20075;-78
2022/08/22 09:01:45;;;;;;;13.98;3.20;;;;;;;;;;5051026;28;20044;-78
2022/08/22 09:04:10;;;;;;;10.55;3.25;;;;;;;;;;5036706;28;20037;-78
2022/08/22 09:07:08;;;;;;;9.45;3.45;;;;;;;;;;5039656;28;20366;-78
2022/08/22 09:09:42;;;;;;;10.63;3.00;;;;;;;;;;5014703;28;20049;-78
2022/08/22 09:12:07;;;;;;;4.88;2.40;;;;;;;;;;5039361;28;20106;-79
2022/08/22 09:14:36;;;;;;;9.98;2.35;;;;;;;;;;5010996;28;20033;-78
2022/08/22 09:17:20;;;;;;;15.07;3.17;;;;;;;;;;5036912;28;20477;-79
2022/08/22 09:20:09;;;;;;;7.90;2.40;;;;;;;;;;5030896;28;20064;-78
2022/08/22 09:22:55;;;;;;;5.97;2.67;;;;;;;;;;5030437;28;20068;-78
2022/08/22 09:25:26;;;;;;;12.50;2.70;;;;;;;;;;5036787;28;20419;-79
2022/08/22 09:27:58;;;;;;;8.80;2.33;;;;;;;;;;5042027;28;20029;-78
2022/08/22 09:30:25;;;;;;;9.50;2.85;;;;;;;;;;5035878;28;20076;-81
2022/08/22 09:33:02;;;;;;;6.45;1.83;;;;;;;;;;5038529;28;20037;-80
2022/08/22 09:35:32;;;;;;;6.85;1.88;;;;;;;;;;5026570;28;20026;-81
2022/08/22 09:37:57;;;;;;;5.88;2.00;;;;;;;;;;5030884;28;20029;-81
2022/08/22 09:40:45;;;;;;;7.22;1.98;;;;;;;;;;5040592;28;20029;-78
2022/08/22 09:43:19;;;;;;;10.50;2.63;;;;;;;;;;5040745;28;20052;-80
2022/08/22 09:45:44;;;;;;;;;;;;;;;;;;5040625;28;20036;-79
2022/08/22 09:48:20;;;;;;;6.07;1.90;;;;;;;;;;5034676;28;19905;-81
2022/08/22 09:50:45;;;;;;;9.48;2.30;;;;;;;;;;5025180;28;20627;-82
2022/08/22 09:53:10;;;;;;;25.83;3.00;;;;;;;;;;5036251;28;20041;-79
2022/08/22 09:55:51;;;;;;;7.43;2.40;;;;;;;;;;5032419;28;20243;-78
2022/08/22 09:58:24;;;;;;;5.63;1.90;;;;;;;;;;5048627;28;20268;-79
2022/08/22 10:00:58;;;;;;;13.45;2.17;;;;;;;;;;5041274;28;20494;-79
2022/08/22 10:03:42;;;;;;;9.90;1.88;;;;;;;;;;5030701;28;20025;-81
2022/08/22 10:06:14;;;;;;;10.50;2.45;;;;;;;;;;5023349;28;20061;-81
2022/08/22 10:08:49;;;;;;;7.20;2.22;;;;;;;;;;5044590;28;20040;-80
2022/08/22 10:11:26;;;;;;;7.50;2.13;;;;;;;;;;5041239;28;20472;-81
2022/08/22 10:14:00;;;;;;;7.50;2.20;;;;;;;;;;5039431;28;20032;-80
2022/08/22 10:16:37;;;;;;;8.98;2.25;;;;;;;;;;5041654;28;20029;-81
2022/08/22 10:19:08;;;;;;;8.30;2.40;;;;;;;;;;5027881;28;20546;-83
2022/08/22 10:21:34;;;;;;;7.30;2.47;;;;;;;;;;5038208;28;20021;-88
2022/08/22 10:24:13;;;;;;;10.60;2.83;;;;;;;;;;5032305;28;20512;-88
2022/08/22 10:26:41;;;;;;;6.55;3.03;;;;;;;;;;5049831;28;20032;-88
2022/08/22 10:29:33;;;;;;;7.20;2.97;;;;;;;;;;5050689;28;20041;-88
2022/08/22 10:32:05;;;;;;;6.18;2.53;;;;;;;;;;5031464;28;20124;-88
2022/08/22 10:34:34;;;;;;;5.47;2.85;;;;;;;;;;5047385;28;20029;-87
2022/08/22 10:37:06;;;;;;;7.43;2.38;;;;;;;;;;5036354;28;20029;-87
2022/08/22 10:39:51;;;;;;;6.30;2.67;;;;;;;;;;5040559;28;20040;-86
2022/08/22 10:42:18;;;;;;;9.90;2.75;;;;;;;;;;5044446;28;20048;-80
2022/08/22 10:45:02;;;;;;;7.10;2.53;;;;;;;;;;5043082;28;20033;-80
2022/08/22 10:47:34;;;;;;;6.85;2.72;;;;;;;;;;5047706;28;20044;-80
2022/08/22 10:50:11;;;;;;;8.30;3.33;;;;;;;;;;5043913;28;20029;-80
2022/08/22 10:52:43;;;;;;;7.68;2.78;;;;;;;;;;5035507;28;20370;-79
2022/08/22 10:55:19;;;;;;;8.77;3.20;;;;;;;;;;5038825;28;20055;-80
2022/08/22 10:58:03;;;;;;;9.30;3.25;;;;;;;;;;5038433;28;20033;-80
2022/08/22 11:00:37;;;;;;;8.20;2.85;;;;;;;;;;5031576;28;20220;-80
2022/08/22 11:03:23;;;;;;;8.27;2.90;;;;;;;;;;5042360;28;20044;-80
2022/08/22 11:05:49;;;;;;;7.05;2.90;;;;;;;;;;5045223;28;20071;-80
2022/08/22 11:08:18;;;;;;;9.93;2.80;;;;;;;;;;5046913;28;20107;-79
2022/08/22 11:11:01;;;;;;;7.13;3.58;;;;;;;;;;5045398;28;20028;-78
2022/08/22 11:13:50;;;;;;;9.75;2.60;;;;;;;;;;5031083;28;20064;-80
2022/08/22 11:16:25;;;;;;;5.85;2.42;;;;;;;;;;5038883;28;20457;-79
2022/08/22 11:19:30;;;;;;;9.63;2.88;;;;;;;;;;5034404;28;20034;-79
2022/08/22 11:21:58;;;;;;;7.50;3.25;;;;;;;;;;5013870;28;20030;-80
2022/08/22 11:24:30;;;;;;;6.95;2.92;;;;;;;;;;5007919;28;20145;-80
2022/08/22 11:27:01;;;;;;;6.18;3.10;;;;;;;;;;5030501;28;20045;-79
2022/08/22 11:29:35;;;;;;;8.48;3.13;;;;;;;;;;5039539;28;20048;-80
2022/08/22 11:32:15;;;;;;;8.00;3.38;;;;;;;;;;5043072;28;20350;-80
2022/08/22 11:34:49;;;;;;;14.07;3.00;;;;;;;;;;5026862;28;20503;-80
2022/08/22 11:37:14;;;;;;;;;;;;;;;;;;5019128;28;20545;-80
2022/08/22 11:39:42;;;;;;;10.52;2.83;;;;;;;;;;5043524;28;20286;-80
2022/08/22 11:42:10;;;;;;;9.27;2.75;;;;;;;;;;5034584;28;20061;-79
2022/08/22 11:44:41;;;;;;;8.60;2.70;;;;;;;;;;5032584;28;20045;-80
2022/08/22 11:47:09;;;;;;;8.10;2.92;;;;;;;;;;5035630;28;20071;-79
2022/08/22 11:50:01;;;;;;;6.63;2.83;;;;;;;;;;5045785;28;20045;-80
2022/08/22 11:52:29;;;;;;;12.48;2.92;;;;;;;;;;5031844;28;20430;-78
2022/08/22 11:55:00;;;;;;;8.52;2.83;;;;;;;;;;5035091;28;20037;-79
2022/08/22 11:57:31;;;;;;;8.02;2.60;;;;;;;;;;5031211;28;20021;-79
2022/08/22 12:00:16;;;;;;;7.55;2.45;;;;;;;;;;5043427;28;20055;-80
2022/08/22 12:02:48;;;;;;;9.25;2.70;;;;;;;;;;5044014;28;20040;-80
2022/08/22 12:05:21;;;;;;;7.53;2.42;;;;;;;;;;5034998;28;20032;-79
2022/08/22 12:07:47;;;;;;;;;;;;;;;;;;5038949;28;20191;-80
2022/08/22 12:10:17;;;;;;;9.40;2.92;;;;;;;;;;5035704;28;19905;-79
2022/08/22 12:12:54;;;;;;;4.57;2.00;;;;;;;;;;5044835;28;20029;-80
2022/08/22 12:15:19;;;;;;;7.43;2.30;;;;;;;;;;5034465;28;20021;-79
2022/08/22 12:18:04;;;;;;;5.78;1.95;;;;;;;;;;5029073;28;20919;-79
2022/08/22 12:20:30;;;;;;;5.47;1.95;;;;;;;;;;5039707;28;20086;-79
2022/08/22 12:23:05;;;;;;;5.13;1.92;;;;;;;;;;5033490;28;20573;-78
2022/08/22 12:25:30;;;;;;;6.53;2.00;;;;;;;;;;5030053;28;20080;-80
2022/08/22 12:28:01;;;;;;;6.82;1.90;;;;;;;;;;5036000;28;20106;-79
2022/08/22 12:30:33;;;;;;;6.70;2.03;;;;;;;;;;5042039;28;20029;-80
2022/08/22 12:33:16;;;;;;;7.10;1.95;;;;;;;;;;5036143;28;20798;-80
2022/08/22 12:35:41;;;;;;;4.47;1.83;;;;;;;;;;5035850;28;20045;-80
2022/08/22 12:38:12;;;;;;;5.70;2.00;;;;;;;;;;5034842;28;20032;-80
2022/08/22 12:40:46;;;;;;;6.53;2.15;;;;;;;;;;5035657;28;20034;-80
2022/08/22 12:43:31;;;;;;;6.50;2.20;;;;;;;;;;5022895;28;20477;-79
2022/08/22 12:46:06;;;;;;;9.57;2.35;;;;;;;;;;5040226;28;20025;-80
2022/08/22 12:48:47;;;;;;;2.80;1.90;;;;;;;;;;5036938;28;20029;-80
2022/08/22 12:51:31;;;;;;;5.07;2.30;;;;;;;;;;5042439;28;20384;-80
2022/08/22 12:53:56;;;;;;;5.03;2.30;;;;;;;;;;5028207;28;20056;-79
2022/08/22 12:56:22;;;;;;;5.82;2.38;;;;;;;;;;5029978;28;20030;-81
2022/08/22 12:58:59;;;;;;;5.28;2.30;;;;;;;;;;5042387;28;20051;-79
2022/08/22 13:01:25;;;;;;;4.95;2.05;;;;;;;;;;5030947;28;20461;-81
2022/08/22 13:03:56;;;;;;;4.63;2.13;;;;;;;;;;5036823;28;20037;-80
2022/08/22 13:06:34;;;;;;;5.50;2.00;;;;;;;;;;5028058;28;20029;-81
2022/08/22 13:09:00;;;;;;;4.65;1.95;;;;;;;;;;5028195;28;20029;-81
2022/08/22 13:11:27;;;;;;;3.55;1.90;;;;;;;;;;5034070;28;20029;-81
2022/08/22 13:13:52;;;;;;;8.27;2.03;;;;;;;;;;5028247;28;20018;-82
2022/08/22 13:16:19;;;;;;;12.75;2.08;;;;;;;;;;5036528;28;20033;-83
2022/08/22 13:18:51;;;;;;;7.43;2.10;;;;;;;;;;5029887;28;20104;-83
2022/08/22 13:21:20;;;;;;;5.10;2.00;;;;;;;;;;5036863;28;20037;-82
2022/08/22 13:23:52;;;;;;;3.33;1.80;;;;;;;;;;5033707;28;20145;-82
2022/08/22 13:26:25;;;;;;;4.38;2.25;;;;;;;;;;5041623;28;20051;-77
2022/08/22 13:28:53;;;;;;;3.63;2.08;;;;;;;;;;5041290;28;20088;-78
2022/08/22 13:31:24;;;;;;;3.58;1.77;;;;;;;;;;5042266;28;20037;-77
2022/08/22 13:33:50;;;;;;;4.32;1.83;;;;;;;;;;5041595;28;20028;-77
2022/08/22 13:36:20;;;;;;;4.05;1.90;;;;;;;;;;5037462;28;20036;-77
2022/08/22 13:38:45;;;;;;;8.35;2.78;;;;;;;;;;5038367;28;20044;-77
2022/08/22 13:41:12;;;;;;;3.20;1.88;;;;;;;;;;5043809;28;20025;-77
2022/08/22 13:43:56;;;;;;;3.75;1.50;;;;;;;;;;5044466;28;20036;-78
2022/08/22 13:46:24;;;;;;;3.63;1.48;;;;;;;;;;5043118;28;20029;-79
2022/08/22 13:48:52;;;;;;;4.05;1.90;;;;;;;;;;5048688;28;20380;-77
2022/08/22 13:51:39;;;;;;;3.97;1.60;;;;;;;;;;5048787;28;20151;-77
2022/08/22 13:54:10;;;;;;;5.85;1.80;;;;;;;;;;5035897;28;20037;-78
2022/08/22 13:56:55;;;;;;;6.75;1.70;;;;;;;;;;5029556;28;20541;-78
2022/08/22 13:59:24;;;;;;;3.38;1.42;;;;;;;;;;5043542;28;20480;-77
2022/08/22 14:01:53;;;;;;;2.90;1.40;;;;;;;;;;5042437;28;20021;-78
2022/08/22 14:04:29;;;;;;;3.10;1.40;;;;;;;;;;5041633;28;20031;-79
2022/08/22 14:07:03;;;;;;;3.53;1.42;;;;;;;;;;5027912;28;20033;-81
2022/08/22 14:09:34;;;;;;;3.20;1.40;;;;;;;;;;5032188;28;20032;-82
2022/08/22 14:12:14;;;;;;;2.42;1.48;;;;;;;;;;5042847;28;20036;-85
2022/08/22 14:14:45;;;;;;;3.38;1.58;;;;;;;;;;5049603;28;20041;-86
2022/08/22 14:17:15;;;;;;;2.45;1.38;;;;;;;;;;5046677;28;20029;-84
2022/08/22 14:19:42;;;;;;;3.40;1.30;;;;;;;;;;5047426;28;20029;-83
2022/08/22 14:22:12;;;;;;;3.05;1.25;;;;;;;;;;5045926;28;20056;-85
2022/08/22 14:24:40;;;;;;;3.42;1.30;;;;;;;;;;5027861;28;20488;-80
2022/08/22 14:27:06;;;;;;;3.58;1.13;;;;;;;;;;5032802;28;20037;-77
2022/08/22 14:29:38;;;;;;;3.55;1.00;;;;;;;;;;5035963;28;20033;-77
2022/08/22 14:32:04;;;;;;;1.80;1.07;;;;;;;;;;5043698;28;20116;-78
2022/08/22 14:34:30;;;;;;;5.30;1.02;;;;;;;;;;5041119;28;20176;-77
2022/08/22 14:37:02;;;;;;;2.08;1.10;;;;;;;;;;5035415;28;20096;-78
2022/08/22 14:39:48;;;;;;;2.15;0.90;;;;;;;;;;5047028;28;20112;-79
2022/08/22 14:42:16;;;;;;;2.47;1.00;;;;;;;;;;5048338;28;20033;-78
2022/08/22 14:45:02;;;;;;;2.17;1.00;;;;;;;;;;5026850;28;20499;-78
2022/08/22 14:47:32;;;;;;;2.90;0.90;;;;;;;;;;5042899;28;20037;-79
2022/08/22 14:49:59;;;;;;;2.58;1.15;;;;;;;;;;5042750;28;20394;-80
2022/08/22 14:52:47;;;;;;;1.85;0.90;;;;;;;;;;5041628;28;20397;-80
2022/08/22 14:55:14;;;;;;;3.10;1.00;;;;;;;;;;5046731;28;20040;-83
2022/08/22 14:57:42;;;;;;;1.65;0.90;;;;;;;;;;5047006;28;20134;-79
2022/08/22 15:00:12;;;;;;;2.28;1.00;;;;;;;;;;5038413;28;20029;-80
2022/08/22 15:02:38;;;;;;;2.30;1.00;;;;;;;;;;5043907;28;20483;-79
2022/08/22 15:05:23;;;;;;;1.90;1.00;;;;;;;;;;5037137;28;20029;-81
2022/08/22 15:07:57;;;;;;;1.70;0.90;;;;;;;;;;5025599;28;20416;-84
2022/08/22 15:10:23;;;;;;;2.25;1.00;;;;;;;;;;5031498;28;20025;-83
2022/08/22 15:12:52;;;;;;;3.03;1.10;;;;;;;;;;5048922;28;20041;-87
2022/08/22 15:15:27;;;;;;;1.90;1.00;;;;;;;;;;5049130;28;20064;-88
2022/08/22 15:17:52;;;;;;;1.70;0.90;;;;;;;;;;5037210;28;20454;-88